Time;durP1;ratioP1;P1;durP2;ratioP2;P2;SDS_P1;SDS_P2;PMS_P1;PMS_P2;Temp;Humidity;BMP_temperature;BMP_pressure;BME280_temperature;BME280_humidity;BME280_pressure;Samples;Min_cycle;Max_cycle;Signal;HPM_P1;HPM_P2
2024/04/17 00:02:23;;;;;;;1.10;0.38;;;;;;;;;;4979667;28;20011;-81
2024/04/17 00:04:55;;;;;;;0.20;0.20;;;;;;;;;;4979714;28;20044;-83
2024/04/17 00:07:26;;;;;;;0.35;0.22;;;;;;;;;;4981458;28;20036;-82
2024/04/17 00:09:57;;;;;;;1.00;0.40;;;;;;;;;;4980719;28;20489;-81
2024/04/17 00:12:27;;;;;;;0.30;0.30;;;;;;;;;;4982846;28;20029;-82
2024/04/17 00:14:58;;;;;;;1.02;0.30;;;;;;;;;;4981010;28;20516;-83
2024/04/17 00:17:29;;;;;;;0.38;0.38;;;;;;;;;;4980604;28;20374;-82
2024/04/17 00:20:02;;;;;;;0.30;0.30;;;;;;;;;;4977544;28;20036;-82
2024/04/17 00:22:32;;;;;;;0.52;0.47;;;;;;;;;;4979141;28;20033;-81
2024/04/17 00:25:03;;;;;;;7.32;2.20;;;;;;;;;;4953751;28;20052;-82
2024/04/17 00:27:34;;;;;;;2.35;0.50;;;;;;;;;;4978904;28;20048;-82
2024/04/17 00:30:04;;;;;;;1.40;0.50;;;;;;;;;;4953676;28;20408;-81
2024/04/17 00:32:35;;;;;;;1.98;0.30;;;;;;;;;;4977154;28;20004;-82
2024/04/17 00:35:07;;;;;;;5.13;0.60;;;;;;;;;;4980006;28;20004;-82
2024/04/17 00:37:40;;;;;;;7.18;0.80;;;;;;;;;;4981138;28;20044;-82
2024/04/17 00:40:10;;;;;;;2.45;0.68;;;;;;;;;;4955307;28;20630;-82
2024/04/17 00:42:40;;;;;;;1.95;0.45;;;;;;;;;;4978521;28;20009;-81
2024/04/17 00:45:11;;;;;;;1.27;0.60;;;;;;;;;;4977665;28;20015;-82
2024/04/17 00:47:42;;;;;;;1.67;0.65;;;;;;;;;;4978753;28;20015;-82
2024/04/17 00:50:14;;;;;;;1.08;0.70;;;;;;;;;;4979431;28;20005;-82
2024/04/17 00:52:44;;;;;;;2.55;0.70;;;;;;;;;;4976788;28;20004;-79
2024/04/17 00:55:14;;;;;;;1.30;0.95;;;;;;;;;;4977994;28;20007;-80
2024/04/17 00:57:48;;;;;;;4.72;1.40;;;;;;;;;;4979956;28;20038;-82
2024/04/17 01:00:19;;;;;;;1.65;0.80;;;;;;;;;;4981049;28;20059;-82
2024/04/17 01:02:50;;;;;;;1.88;1.02;;;;;;;;;;4981463;28;20005;-81
2024/04/17 01:05:21;;;;;;;4.18;0.73;;;;;;;;;;4981305;28;20473;-80
2024/04/17 01:07:51;;;;;;;3.78;0.70;;;;;;;;;;4984354;28;20037;-82
2024/04/17 01:10:22;;;;;;;2.25;0.77;;;;;;;;;;4979699;28;20005;-82
2024/04/17 01:12:52;;;;;;;5.93;1.80;;;;;;;;;;4979873;28;20034;-79
2024/04/17 01:15:22;;;;;;;14.82;7.13;;;;;;;;;;4981848;28;20033;-82
2024/04/17 01:17:54;;;;;;;14.23;7.13;;;;;;;;;;4979116;28;20382;-80
2024/04/17 01:20:26;;;;;;;13.98;6.88;;;;;;;;;;4980976;28;20040;-81
2024/04/17 01:22:58;;;;;;;13.43;5.03;;;;;;;;;;4980929;28;20018;-80
2024/04/17 01:25:29;;;;;;;10.05;3.42;;;;;;;;;;4981043;28;20539;-82
2024/04/17 01:27:59;;;;;;;7.65;2.97;;;;;;;;;;4978215;28;20008;-81
2024/04/17 01:30:29;;;;;;;11.95;2.85;;;;;;;;;;4978773;28;20041;-80
2024/04/17 01:33:01;;;;;;;4.22;2.83;;;;;;;;;;4980814;28;20036;-81
2024/04/17 01:35:32;;;;;;;5.22;3.30;;;;;;;;;;4979811;28;20020;-81
2024/04/17 01:38:02;;;;;;;9.65;4.07;;;;;;;;;;4982160;28;20028;-79
2024/04/17 01:40:32;;;;;;;7.57;4.43;;;;;;;;;;4981984;28;20037;-79
2024/04/17 01:43:03;;;;;;;8.48;4.35;;;;;;;;;;4984112;28;20803;-81
2024/04/17 01:45:37;;;;;;;7.10;3.85;;;;;;;;;;4981479;28;20052;-82
2024/04/17 01:48:07;;;;;;;7.18;2.35;;;;;;;;;;4978975;28;20036;-82
2024/04/17 01:50:38;;;;;;;7.70;2.17;;;;;;;;;;4981133;28;20029;-81
2024/04/17 01:53:08;;;;;;;5.53;1.50;;;;;;;;;;4981254;28;20040;-82
2024/04/17 01:55:39;;;;;;;7.38;1.60;;;;;;;;;;4980923;28;20028;-81
2024/04/17 01:58:10;;;;;;;6.20;1.10;;;;;;;;;;4979704;28;20005;-80
2024/04/17 02:00:40;;;;;;;5.30;0.88;;;;;;;;;;4980744;28;20041;-81
2024/04/17 02:03:11;;;;;;;0.70;0.60;;;;;;;;;;4978928;28;20360;-79
2024/04/17 02:05:41;;;;;;;2.47;0.85;;;;;;;;;;4980736;28;20032;-81
2024/04/17 02:08:14;;;;;;;0.75;0.68;;;;;;;;;;4978951;28;20037;-81
2024/04/17 02:10:44;;;;;;;1.65;0.50;;;;;;;;;;4980436;28;20492;-81
2024/04/17 02:13:15;;;;;;;3.30;0.63;;;;;;;;;;4980722;28;20028;-81
2024/04/17 02:15:46;;;;;;;4.68;0.75;;;;;;;;;;4978304;28;20032;-80
2024/04/17 02:18:16;;;;;;;0.70;0.60;;;;;;;;;;4978757;28;20015;-81
2024/04/17 02:20:47;;;;;;;0.60;0.60;;;;;;;;;;4981743;28;20374;-81
2024/04/17 02:23:17;;;;;;;1.63;0.80;;;;;;;;;;4980544;28;20004;-80
2024/04/17 02:25:49;;;;;;;5.53;0.70;;;;;;;;;;4978956;28;20015;-81
2024/04/17 02:28:19;;;;;;;2.60;0.73;;;;;;;;;;4980995;28;20384;-81
2024/04/17 02:30:50;;;;;;;5.15;0.80;;;;;;;;;;4981266;28;20614;-80
2024/04/17 02:33:21;;;;;;;0.82;0.70;;;;;;;;;;4979367;28;20017;-81
2024/04/17 02:35:51;;;;;;;3.17;0.60;;;;;;;;;;4980257;28;20044;-81
2024/04/17 02:38:22;;;;;;;4.90;0.88;;;;;;;;;;4977802;28;20805;-81
2024/04/17 02:40:52;;;;;;;6.30;0.90;;;;;;;;;;4980588;28;20824;-80
2024/04/17 02:43:24;;;;;;;0.80;0.80;;;;;;;;;;4981002;28;20362;-80
2024/04/17 02:45:55;;;;;;;5.47;0.95;;;;;;;;;;4981369;28;20041;-81
2024/04/17 02:48:27;;;;;;;5.97;1.30;;;;;;;;;;4979084;28;20666;-81
2024/04/17 02:50:58;;;;;;;3.20;1.35;;;;;;;;;;4981161;28;20517;-81
2024/04/17 02:53:30;;;;;;;6.20;1.65;;;;;;;;;;4980529;28;20373;-80
2024/04/17 02:56:00;;;;;;;5.30;1.77;;;;;;;;;;4978846;28;20037;-81
2024/04/17 02:58:30;;;;;;;4.95;2.10;;;;;;;;;;4980233;28;20366;-81
2024/04/17 03:01:16;;;;;;;7.00;2.33;;;;;;;;;;4980765;28;20657;-80
2024/04/17 03:03:48;;;;;;;7.70;2.47;;;;;;;;;;4979982;28;20033;-81
2024/04/17 03:06:19;;;;;;;5.88;2.80;;;;;;;;;;4980277;28;20040;-81
2024/04/17 03:08:49;;;;;;;8.63;2.83;;;;;;;;;;4979712;28;20032;-81
2024/04/17 03:11:19;;;;;;;11.25;2.95;;;;;;;;;;4980483;28;20502;-80
2024/04/17 03:13:50;;;;;;;7.93;2.65;;;;;;;;;;4978573;28;20029;-80
2024/04/17 03:16:21;;;;;;;6.43;2.63;;;;;;;;;;4980062;28;20587;-81
2024/04/17 03:18:52;;;;;;;12.10;2.97;;;;;;;;;;4978988;28;20044;-80
2024/04/17 03:21:22;;;;;;;11.27;3.20;;;;;;;;;;4979399;28;20032;-80
2024/04/17 03:23:53;;;;;;;10.20;3.05;;;;;;;;;;4979728;28;20481;-80
2024/04/17 03:26:24;;;;;;;7.63;3.10;;;;;;;;;;4980072;28;20005;-80
2024/04/17 03:28:54;;;;;;;6.70;3.47;;;;;;;;;;4980283;28;20547;-80
2024/04/17 03:31:24;;;;;;;5.85;3.08;;;;;;;;;;4980387;28;20028;-80
2024/04/17 03:33:55;;;;;;;5.85;2.95;;;;;;;;;;4979364;28;20033;-79
2024/04/17 03:36:25;;;;;;;9.10;3.03;;;;;;;;;;4979621;28;20721;-79
2024/04/17 03:38:55;;;;;;;8.27;2.72;;;;;;;;;;4977810;28;20411;-79
2024/04/17 03:41:26;;;;;;;9.60;2.90;;;;;;;;;;4979754;28;20481;-80
2024/04/17 03:43:57;;;;;;;10.32;2.60;;;;;;;;;;4953640;28;20008;-80
2024/04/17 03:46:28;;;;;;;5.70;2.33;;;;;;;;;;4977466;28;20004;-80
2024/04/17 03:48:59;;;;;;;3.30;2.40;;;;;;;;;;4979337;28;20029;-80
2024/04/17 03:51:30;;;;;;;3.28;2.03;;;;;;;;;;4978932;28;20044;-79
2024/04/17 03:54:00;;;;;;;11.38;2.20;;;;;;;;;;4978831;28;20040;-80
2024/04/17 03:56:31;;;;;;;7.13;2.25;;;;;;;;;;4979267;28;20033;-78
2024/04/17 03:59:01;;;;;;;4.18;1.88;;;;;;;;;;4976643;28;20015;-79
2024/04/17 04:01:34;;;;;;;8.10;1.92;;;;;;;;;;4977153;28;20493;-79
2024/04/17 04:04:06;;;;;;;4.32;1.98;;;;;;;;;;4977047;28;20005;-80
2024/04/17 04:06:36;;;;;;;2.50;1.75;;;;;;;;;;4977729;28;20053;-79
2024/04/17 04:09:07;;;;;;;5.80;1.88;;;;;;;;;;4981974;28;20041;-78
2024/04/17 04:11:38;;;;;;;5.03;2.25;;;;;;;;;;4981657;28;20032;-78
2024/04/17 04:14:09;;;;;;;4.70;1.98;;;;;;;;;;4982138;28;20045;-79
2024/04/17 04:16:39;;;;;;;12.07;2.45;;;;;;;;;;4979682;28;20814;-79
2024/04/17 04:19:11;;;;;;;2.47;1.75;;;;;;;;;;4981559;28;20041;-79
2024/04/17 04:21:41;;;;;;;7.13;1.95;;;;;;;;;;4981594;28;20037;-80
2024/04/17 04:24:11;;;;;;;3.08;1.73;;;;;;;;;;4981760;28;20611;-79
2024/04/17 04:26:42;;;;;;;6.00;1.52;;;;;;;;;;4981441;28;20032;-79
2024/04/17 04:29:14;;;;;;;4.72;1.38;;;;;;;;;;4980003;28;20015;-80
2024/04/17 04:31:44;;;;;;;2.85;1.10;;;;;;;;;;4979981;28;20033;-79
2024/04/17 04:34:15;;;;;;;2.05;1.20;;;;;;;;;;4981311;28;20029;-79
2024/04/17 04:36:48;;;;;;;2.88;1.23;;;;;;;;;;4979077;28;20037;-79
2024/04/17 04:39:19;;;;;;;3.40;0.88;;;;;;;;;;4981757;28;20029;-79
2024/04/17 04:41:49;;;;;;;7.15;1.17;;;;;;;;;;4981459;28;20052;-79
2024/04/17 04:44:20;;;;;;;1.55;1.10;;;;;;;;;;4981459;28;20388;-79
2024/04/17 04:46:51;;;;;;;2.67;1.00;;;;;;;;;;4980933;28;20044;-80
2024/04/17 04:49:22;;;;;;;3.90;1.08;;;;;;;;;;4979813;28;20008;-80
2024/04/17 04:51:55;;;;;;;0.70;0.70;;;;;;;;;;4978629;28;20033;-79
2024/04/17 04:54:28;;;;;;;4.20;1.02;;;;;;;;;;4981673;28;20041;-79
2024/04/17 04:56:59;;;;;;;4.32;0.80;;;;;;;;;;4981982;28;20327;-79
2024/04/17 04:59:29;;;;;;;4.68;0.95;;;;;;;;;;4981026;28;20059;-80
2024/04/17 05:02:01;;;;;;;6.63;1.17;;;;;;;;;;4981789;28;20033;-79
2024/04/17 05:04:32;;;;;;;3.38;0.70;;;;;;;;;;4981297;28;20029;-78
2024/04/17 05:07:04;;;;;;;6.25;0.98;;;;;;;;;;4979289;28;20005;-80
2024/04/17 05:09:34;;;;;;;7.85;0.95;;;;;;;;;;4980891;28;20489;-80
2024/04/17 05:12:04;;;;;;;7.80;1.00;;;;;;;;;;4981018;28;20033;-79
2024/04/17 05:14:35;;;;;;;0.90;0.90;;;;;;;;;;4981273;28;20025;-79
2024/04/17 05:17:06;;;;;;;1.40;0.95;;;;;;;;;;4981001;28;20529;-78
2024/04/17 05:19:37;;;;;;;3.75;0.90;;;;;;;;;;4979834;28;20542;-80
2024/04/17 05:22:08;;;;;;;4.10;0.85;;;;;;;;;;4980951;28;20046;-80
2024/04/17 05:24:38;;;;;;;2.08;1.02;;;;;;;;;;4981246;28;20040;-80
2024/04/17 05:27:10;;;;;;;2.42;1.15;;;;;;;;;;4979287;28;20482;-80
2024/04/17 05:29:41;;;;;;;3.13;0.93;;;;;;;;;;4980848;28;20033;-79
2024/04/17 05:32:15;;;;;;;2.00;0.90;;;;;;;;;;4978806;28;20044;-79
2024/04/17 05:34:45;;;;;;;6.95;0.95;;;;;;;;;;4980703;28;20048;-80
2024/04/17 05:37:16;;;;;;;1.45;0.80;;;;;;;;;;4980887;28;20474;-78
2024/04/17 05:39:47;;;;;;;1.10;0.50;;;;;;;;;;4980650;28;20481;-79
2024/04/17 05:42:17;;;;;;;5.80;0.80;;;;;;;;;;4978452;28;20025;-79
2024/04/17 05:44:49;;;;;;;0.60;0.50;;;;;;;;;;4979917;28;20004;-79
2024/04/17 05:47:20;;;;;;;2.97;0.70;;;;;;;;;;4980629;28;20477;-79
2024/04/17 05:49:52;;;;;;;4.10;0.70;;;;;;;;;;4979307;28;20049;-79
2024/04/17 05:52:26;;;;;;;1.65;0.20;;;;;;;;;;4978606;28;20357;-79
2024/04/17 05:54:56;;;;;;;6.30;0.52;;;;;;;;;;4980477;28;20028;-79
2024/04/17 05:57:27;;;;;;;0.82;0.45;;;;;;;;;;4980386;28;20028;-79
2024/04/17 05:59:59;;;;;;;2.58;0.40;;;;;;;;;;4978151;28;20037;-78
2024/04/17 06:02:31;;;;;;;0.98;0.50;;;;;;;;;;4980460;28;20019;-78
2024/04/17 06:05:03;;;;;;;3.55;0.60;;;;;;;;;;4980285;28;20004;-78
2024/04/17 06:07:34;;;;;;;1.88;0.55;;;;;;;;;;4980195;28;20042;-78
2024/04/17 06:10:05;;;;;;;1.08;0.73;;;;;;;;;;4979957;28;20048;-78
2024/04/17 06:12:36;;;;;;;4.78;0.50;;;;;;;;;;4980917;28;20049;-79
2024/04/17 06:15:06;;;;;;;0.38;0.38;;;;;;;;;;4978793;28;20004;-77
2024/04/17 06:17:37;;;;;;;1.50;0.38;;;;;;;;;;4979124;28;20004;-79
2024/04/17 06:20:09;;;;;;;0.60;0.50;;;;;;;;;;4980620;28;20036;-78
2024/04/17 06:22:41;;;;;;;6.30;0.82;;;;;;;;;;4978731;28;20004;-78
2024/04/17 06:25:14;;;;;;;1.02;0.40;;;;;;;;;;4979695;28;20461;-78
2024/04/17 06:27:45;;;;;;;2.40;0.52;;;;;;;;;;4978745;28;20036;-80
2024/04/17 06:30:15;;;;;;;0.70;0.40;;;;;;;;;;4980549;28;20049;-78
2024/04/17 06:32:46;;;;;;;1.30;0.40;;;;;;;;;;4980029;28;20044;-78
2024/04/17 06:35:16;;;;;;;4.07;0.55;;;;;;;;;;4980532;28;20005;-79
2024/04/17 06:37:47;;;;;;;2.17;0.68;;;;;;;;;;4980589;28;20489;-78
2024/04/17 06:40:17;;;;;;;3.95;0.60;;;;;;;;;;4979712;28;20052;-78
2024/04/17 06:42:48;;;;;;;3.38;0.50;;;;;;;;;;4980083;28;20009;-80
2024/04/17 06:45:18;;;;;;;1.27;0.50;;;;;;;;;;4979875;28;20015;-79
2024/04/17 06:47:48;;;;;;;3.50;0.63;;;;;;;;;;4979181;28;20028;-78
2024/04/17 06:50:20;;;;;;;2.08;0.60;;;;;;;;;;4980046;28;20424;-79
2024/04/17 06:52:51;;;;;;;1.67;0.68;;;;;;;;;;4979650;28;20036;-79
2024/04/17 06:55:24;;;;;;;3.05;0.50;;;;;;;;;;4979316;28;20040;-79
2024/04/17 06:57:55;;;;;;;4.88;0.70;;;;;;;;;;4979819;28;20036;-79
2024/04/17 07:00:35;;;;;;;1.08;0.55;;;;;;;;;;4979363;28;20469;-78
2024/04/17 07:03:06;;;;;;;5.03;0.50;;;;;;;;;;4979754;28;20028;-77
2024/04/17 07:05:36;;;;;;;5.50;0.90;;;;;;;;;;4980280;28;20028;-78
2024/04/17 07:08:07;;;;;;;1.25;0.55;;;;;;;;;;4977387;28;20036;-79
2024/04/17 07:10:37;;;;;;;2.25;0.60;;;;;;;;;;4979601;28;20047;-78
2024/04/17 07:13:08;;;;;;;5.43;1.25;;;;;;;;;;4979416;28;20032;-78
2024/04/17 07:15:38;;;;;;;2.85;0.70;;;;;;;;;;4979944;28;20378;-78
2024/04/17 07:18:09;;;;;;;1.60;0.57;;;;;;;;;;4981822;28;20037;-80
2024/04/17 07:20:39;;;;;;;1.98;0.70;;;;;;;;;;4980213;28;20040;-81
2024/04/17 07:23:10;;;;;;;2.47;0.80;;;;;;;;;;4979939;28;20045;-81
2024/04/17 07:25:40;;;;;;;2.35;0.82;;;;;;;;;;4980230;28;20048;-77
2024/04/17 07:28:11;;;;;;;2.10;0.60;;;;;;;;;;4978299;28;20378;-78
2024/04/17 07:30:42;;;;;;;2.63;0.65;;;;;;;;;;4978585;28;20485;-78
2024/04/17 07:33:13;;;;;;;3.65;0.93;;;;;;;;;;4978570;28;20040;-77
2024/04/17 07:35:43;;;;;;;1.75;0.80;;;;;;;;;;4976627;28;20009;-81
2024/04/17 07:38:14;;;;;;;2.90;0.70;;;;;;;;;;4978585;28;20036;-81
2024/04/17 07:40:56;;;;;;;3.55;0.80;;;;;;;;;;4979669;28;20041;-80
2024/04/17 07:43:30;;;;;;;1.77;0.88;;;;;;;;;;4981836;28;20037;-78
2024/04/17 07:46:03;;;;;;;;;;;;;;;;;;4982499;28;20005;-77
2024/04/17 07:48:33;;;;;;;4.05;1.10;;;;;;;;;;4981928;28;19955;-80
2024/04/17 07:51:04;;;;;;;1.20;0.80;;;;;;;;;;4956009;28;20376;-79
2024/04/17 07:53:35;;;;;;;1.75;1.00;;;;;;;;;;4982233;28;20000;-79
2024/04/17 07:56:05;;;;;;;1.55;0.82;;;;;;;;;;4982171;28;20045;-80
2024/04/17 07:58:38;;;;;;;2.63;0.70;;;;;;;;;;4982456;28;20037;-80
2024/04/17 08:01:10;;;;;;;0.47;0.43;;;;;;;;;;4982417;28;20473;-77
2024/04/17 08:03:41;;;;;;;1.95;0.50;;;;;;;;;;4981697;28;20032;-80
2024/04/17 08:06:13;;;;;;;3.63;0.77;;;;;;;;;;4979811;28;20009;-77
2024/04/17 08:08:44;;;;;;;1.23;0.52;;;;;;;;;;4981878;28;20037;-79
2024/04/17 08:11:16;;;;;;;3.20;0.63;;;;;;;;;;4981772;28;20032;-77
2024/04/17 08:13:47;;;;;;;1.75;0.55;;;;;;;;;;4980075;28;20015;-78
2024/04/17 08:16:18;;;;;;;0.40;0.40;;;;;;;;;;4981818;28;20053;-78
2024/04/17 08:18:48;;;;;;;5.30;0.80;;;;;;;;;;4979420;28;20490;-79
2024/04/17 08:21:20;;;;;;;0.57;0.57;;;;;;;;;;4982260;28;20032;-78
2024/04/17 08:23:51;;;;;;;4.45;0.50;;;;;;;;;;4982044;28;20041;-78
2024/04/17 08:26:22;;;;;;;4.25;0.40;;;;;;;;;;4981779;28;20519;-77
2024/04/17 08:28:53;;;;;;;0.70;0.50;;;;;;;;;;4979805;28;20005;-78
2024/04/17 08:31:23;;;;;;;1.05;0.40;;;;;;;;;;4981184;28;20033;-78
2024/04/17 08:33:54;;;;;;;0.60;0.60;;;;;;;;;;4981347;28;20040;-80
2024/04/17 08:36:25;;;;;;;3.45;0.70;;;;;;;;;;4981453;28;20678;-79
2024/04/17 08:38:57;;;;;;;0.75;0.70;;;;;;;;;;4978919;28;20506;-78
2024/04/17 08:41:29;;;;;;;0.95;0.50;;;;;;;;;;4982009;28;20485;-76
2024/04/17 08:44:04;;;;;;;0.47;0.40;;;;;;;;;;4980886;28;20048;-77
2024/04/17 08:46:36;;;;;;;5.45;0.70;;;;;;;;;;4980436;28;20001;-78
2024/04/17 08:49:09;;;;;;;2.00;0.40;;;;;;;;;;4981480;28;20028;-77
2024/04/17 08:51:40;;;;;;;0.50;0.50;;;;;;;;;;4981874;28;20025;-76
2024/04/17 08:54:11;;;;;;;0.50;0.50;;;;;;;;;;4980817;28;20055;-77
2024/04/17 08:56:43;;;;;;;0.60;0.55;;;;;;;;;;4981397;28;20037;-77
2024/04/17 08:59:14;;;;;;;1.33;0.40;;;;;;;;;;4979613;28;20538;-78
2024/04/17 09:01:46;;;;;;;1.65;0.60;;;;;;;;;;4980739;28;20478;-76
2024/04/17 09:04:22;;;;;;;5.47;0.77;;;;;;;;;;4982068;28;20051;-77
2024/04/17 09:06:53;;;;;;;1.70;0.60;;;;;;;;;;4981606;28;20367;-77
2024/04/17 09:09:24;;;;;;;0.52;0.52;;;;;;;;;;4981347;28;20044;-80
2024/04/17 09:11:55;;;;;;;0.82;0.60;;;;;;;;;;4981714;28;20032;-76
2024/04/17 09:14:27;;;;;;;1.70;0.50;;;;;;;;;;4981656;28;20037;-77
2024/04/17 09:17:03;;;;;;;0.98;0.57;;;;;;;;;;4981523;28;20453;-75
2024/04/17 09:19:34;;;;;;;0.75;0.65;;;;;;;;;;4983078;28;20065;-76
2024/04/17 09:22:04;;;;;;;0.52;0.50;;;;;;;;;;4980223;28;20040;-76
2024/04/17 09:24:40;;;;;;;4.55;1.08;;;;;;;;;;4981112;28;20030;-79
2024/04/17 09:27:17;;;;;;;2.15;0.70;;;;;;;;;;4981141;28;20009;-76
2024/04/17 09:29:48;;;;;;;0.60;0.60;;;;;;;;;;4980777;28;20365;-78
2024/04/17 09:32:22;;;;;;;0.50;0.50;;;;;;;;;;4978987;28;20456;-77
2024/04/17 09:34:52;;;;;;;1.58;0.50;;;;;;;;;;4978220;28;20016;-77
2024/04/17 09:37:23;;;;;;;0.70;0.70;;;;;;;;;;4981259;28;20524;-75
2024/04/17 09:40:07;;;;;;;8.20;0.70;;;;;;;;;;4981125;28;20001;-76
2024/04/17 09:42:41;;;;;;;0.60;0.47;;;;;;;;;;4979607;28;20338;-78
2024/04/17 09:45:15;;;;;;;1.63;0.70;;;;;;;;;;4980108;28;20033;-77
2024/04/17 09:47:49;;;;;;;3.28;0.80;;;;;;;;;;4980353;28;20028;-77
2024/04/17 09:50:27;;;;;;;2.55;1.08;;;;;;;;;;4981453;28;20037;-82
2024/04/17 09:53:01;;;;;;;1.02;0.80;;;;;;;;;;4980561;28;20849;-77
2024/04/17 09:55:33;;;;;;;1.63;0.80;;;;;;;;;;4979657;28;20037;-80
2024/04/17 09:58:09;;;;;;;4.57;0.70;;;;;;;;;;4980845;28;20466;-76
2024/04/17 10:00:42;;;;;;;6.93;1.00;;;;;;;;;;4980389;28;20081;-77
2024/04/17 10:03:15;;;;;;;6.50;0.70;;;;;;;;;;4980878;28;20477;-75
2024/04/17 10:05:46;;;;;;;4.53;0.77;;;;;;;;;;4980318;28;20630;-76
2024/04/17 10:08:18;;;;;;;0.55;0.55;;;;;;;;;;4980563;28;20385;-76
2024/04/17 10:10:50;;;;;;;1.33;1.13;;;;;;;;;;4980204;28;20518;-76
2024/04/17 10:13:23;;;;;;;4.03;1.00;;;;;;;;;;4980254;28;20513;-76
2024/04/17 10:15:54;;;;;;;0.65;0.50;;;;;;;;;;4979480;28;20005;-76
2024/04/17 10:18:26;;;;;;;6.45;0.60;;;;;;;;;;4980115;28;20033;-76
2024/04/17 10:20:57;;;;;;;8.18;0.90;;;;;;;;;;4980493;28;20378;-75
2024/04/17 10:23:29;;;;;;;1.95;0.70;;;;;;;;;;4980092;28;20040;-77
2024/04/17 10:25:59;;;;;;;5.72;0.90;;;;;;;;;;4980505;28;20028;-79
2024/04/17 10:28:31;;;;;;;6.10;1.17;;;;;;;;;;4980097;28;20473;-77
2024/04/17 10:31:04;;;;;;;0.60;0.57;;;;;;;;;;4980652;28;20623;-76
2024/04/17 10:33:35;;;;;;;4.40;0.75;;;;;;;;;;4979828;28;20308;-76
2024/04/17 10:36:06;;;;;;;3.75;0.80;;;;;;;;;;4978538;28;20372;-76
2024/04/17 10:38:40;;;;;;;6.45;1.08;;;;;;;;;;4979338;28;20391;-75
2024/04/17 10:41:13;;;;;;;2.10;0.90;;;;;;;;;;4979142;28;20004;-77
2024/04/17 10:43:44;;;;;;;5.28;0.70;;;;;;;;;;4979434;28;20497;-77
2024/04/17 10:46:21;;;;;;;1.27;0.75;;;;;;;;;;4980068;28;20032;-76
2024/04/17 10:48:52;;;;;;;1.90;0.75;;;;;;;;;;4979581;28;20005;-76
2024/04/17 10:51:24;;;;;;;1.58;0.70;;;;;;;;;;4978441;28;20032;-76
2024/04/17 10:53:56;;;;;;;6.93;0.80;;;;;;;;;;4979840;28;20468;-77
2024/04/17 10:56:27;;;;;;;0.73;0.60;;;;;;;;;;4980211;28;20037;-77
2024/04/17 10:59:01;;;;;;;0.95;0.80;;;;;;;;;;4980692;28;20024;-79
2024/04/17 11:01:32;;;;;;;5.72;0.75;;;;;;;;;;4980071;28;20044;-76
2024/04/17 11:04:03;;;;;;;1.52;0.80;;;;;;;;;;4980176;28;20028;-81
2024/04/17 11:06:36;;;;;;;2.03;0.90;;;;;;;;;;4979714;28;20037;-76
2024/04/17 11:09:10;;;;;;;3.25;0.70;;;;;;;;;;4979826;28;20038;-75
2024/04/17 11:11:50;;;;;;;1.05;0.90;;;;;;;;;;4979835;28;20540;-77
2024/04/17 11:14:23;;;;;;;0.85;0.70;;;;;;;;;;4977369;28;20493;-79
2024/04/17 11:16:57;;;;;;;4.53;0.85;;;;;;;;;;4977857;28;20033;-75
2024/04/17 11:19:30;;;;;;;8.27;4.10;;;;;;;;;;4979977;28;20060;-78
2024/04/17 11:22:10;;;;;;;1.08;0.80;;;;;;;;;;4978976;28;20038;-78
2024/04/17 11:24:52;;;;;;;3.83;0.60;;;;;;;;;;4978938;28;20004;-77
2024/04/17 11:27:23;;;;;;;1.67;0.70;;;;;;;;;;4980276;28;20472;-77
2024/04/17 11:29:54;;;;;;;0.55;0.55;;;;;;;;;;4980009;28;20052;-79
2024/04/17 11:32:24;;;;;;;1.65;0.85;;;;;;;;;;4979500;28;20052;-75
2024/04/17 11:34:57;;;;;;;5.57;1.00;;;;;;;;;;4979615;28;20767;-77
2024/04/17 11:37:27;;;;;;;8.52;1.65;;;;;;;;;;4979806;28;20033;-77
2024/04/17 11:40:01;;;;;;;4.43;0.90;;;;;;;;;;4979506;28;20380;-75
2024/04/17 11:42:31;;;;;;;4.20;0.98;;;;;;;;;;4979505;28;20780;-75
2024/04/17 11:45:01;;;;;;;7.50;1.02;;;;;;;;;;4978993;28;20028;-79
2024/04/17 11:47:32;;;;;;;11.40;1.98;;;;;;;;;;4976625;28;20015;-76
2024/04/17 11:50:03;;;;;;;19.25;2.20;;;;;;;;;;4980073;28;21379;-80
2024/04/17 11:52:33;;;;;;;15.50;1.20;;;;;;;;;;4979044;28;20409;-76
2024/04/17 11:55:04;;;;;;;7.88;1.67;;;;;;;;;;4979647;28;20048;-76
2024/04/17 11:57:35;;;;;;;5.47;0.50;;;;;;;;;;4978149;28;20064;-77
2024/04/17 12:00:09;;;;;;;2.47;0.70;;;;;;;;;;4976892;28;20015;-76
2024/04/17 12:02:41;;;;;;;0.85;0.60;;;;;;;;;;4979447;28;20440;-75
2024/04/17 12:05:14;;;;;;;0.57;0.50;;;;;;;;;;4980024;28;20551;-77
2024/04/17 12:07:45;;;;;;;2.95;0.60;;;;;;;;;;4976991;28;20011;-74
2024/04/17 12:10:17;;;;;;;2.28;0.68;;;;;;;;;;4979354;28;20048;-75
2024/04/17 12:12:47;;;;;;;0.80;0.50;;;;;;;;;;4977120;28;20019;-76
2024/04/17 12:15:18;;;;;;;0.68;0.40;;;;;;;;;;4978832;28;20036;-75
2024/04/17 12:17:49;;;;;;;2.10;0.57;;;;;;;;;;4976029;28;20569;-76
2024/04/17 12:20:20;;;;;;;0.50;0.40;;;;;;;;;;4979018;28;20370;-77
2024/04/17 12:22:51;;;;;;;0.50;0.50;;;;;;;;;;4979125;28;20028;-75
2024/04/17 12:28:11;;;;;;;0.40;0.40;;;;;;;;;;4979268;28;20033;-76
2024/04/17 12:30:42;;;;;;;7.43;0.75;;;;;;;;;;4981517;28;20033;-75
2024/04/17 12:33:12;;;;;;;1.30;0.40;;;;;;;;;;4980895;28;20015;-74
2024/04/17 12:35:46;;;;;;;0.40;0.40;;;;;;;;;;4981487;28;20040;-78
2024/04/17 12:38:17;;;;;;;0.98;0.45;;;;;;;;;;4981817;28;20032;-77
2024/04/17 12:40:48;;;;;;;2.58;0.50;;;;;;;;;;4983903;28;21069;-75
2024/04/17 12:43:18;;;;;;;0.40;0.40;;;;;;;;;;4985054;28;20033;-76
2024/04/17 12:45:48;;;;;;;0.40;0.40;;;;;;;;;;4982952;28;20009;-76
2024/04/17 12:48:19;;;;;;;2.85;0.50;;;;;;;;;;4981294;28;20005;-75
2024/04/17 12:50:51;;;;;;;0.70;0.40;;;;;;;;;;4981404;28;20397;-75
2024/04/17 12:53:21;;;;;;;0.40;0.40;;;;;;;;;;4978733;28;20009;-77
2024/04/17 12:55:55;;;;;;;1.23;0.90;;;;;;;;;;4981930;28;20032;-75
2024/04/17 12:58:26;;;;;;;1.00;0.50;;;;;;;;;;4981491;28;20032;-74
2024/04/17 13:00:56;;;;;;;0.63;0.50;;;;;;;;;;4979149;28;20036;-75
2024/04/17 13:03:26;;;;;;;0.77;0.30;;;;;;;;;;4979686;28;20009;-75
2024/04/17 13:06:04;;;;;;;0.50;0.50;;;;;;;;;;4979873;28;20048;-76
2024/04/17 13:08:37;;;;;;;1.05;0.60;;;;;;;;;;4981730;28;20034;-76
2024/04/17 13:11:08;;;;;;;1.90;0.60;;;;;;;;;;4979450;28;20009;-76
2024/04/17 13:13:44;;;;;;;7.32;0.70;;;;;;;;;;4981392;28;20036;-75
2024/04/17 13:16:14;;;;;;;2.92;0.70;;;;;;;;;;4979774;28;20005;-75
2024/04/17 13:18:45;;;;;;;0.60;0.50;;;;;;;;;;4987994;28;20041;-73
2024/04/17 13:21:17;;;;;;;4.90;0.70;;;;;;;;;;4984222;28;20697;-76
2024/04/17 13:23:48;;;;;;;0.40;0.40;;;;;;;;;;4980677;28;20052;-77
2024/04/17 13:26:18;;;;;;;2.78;0.45;;;;;;;;;;4955629;28;20029;-77
2024/04/17 13:28:49;;;;;;;3.03;0.50;;;;;;;;;;4980429;28;20437;-74
2024/04/17 13:31:22;;;;;;;0.93;0.57;;;;;;;;;;4981107;28;20032;-77
2024/04/17 13:33:53;;;;;;;4.78;0.80;;;;;;;;;;4980539;28;20033;-77
2024/04/17 13:36:23;;;;;;;0.45;0.40;;;;;;;;;;4981278;28;20029;-76
2024/04/17 13:38:53;;;;;;;1.15;0.60;;;;;;;;;;4980046;28;20028;-76
2024/04/17 13:41:24;;;;;;;1.75;0.45;;;;;;;;;;4980270;28;20045;-77
2024/04/17 13:43:55;;;;;;;5.80;0.60;;;;;;;;;;4980729;28;20036;-79
2024/04/17 13:46:26;;;;;;;1.30;0.70;;;;;;;;;;4980845;28;20055;-77
2024/04/17 13:48:57;;;;;;;0.50;0.50;;;;;;;;;;4979252;28;20011;-77
2024/04/17 13:51:27;;;;;;;0.50;0.50;;;;;;;;;;4981051;28;20044;-83
2024/04/17 13:53:58;;;;;;;0.75;0.50;;;;;;;;;;4980559;28;20373;-74
2024/04/17 13:56:28;;;;;;;1.80;0.65;;;;;;;;;;4980697;28;20032;-75
2024/04/17 13:58:59;;;;;;;0.85;0.40;;;;;;;;;;4980463;28;20036;-76
2024/04/17 14:01:30;;;;;;;0.65;0.65;;;;;;;;;;4979325;28;20008;-74
2024/04/17 14:04:05;;;;;;;1.45;0.50;;;;;;;;;;4980641;28;20431;-74
2024/04/17 14:06:35;;;;;;;1.17;0.47;;;;;;;;;;4980805;28;20048;-77
2024/04/17 14:09:06;;;;;;;0.80;0.40;;;;;;;;;;4980315;28;20015;-76
2024/04/17 14:11:37;;;;;;;0.55;0.50;;;;;;;;;;4980832;28;20623;-76
2024/04/17 14:14:10;;;;;;;1.60;0.70;;;;;;;;;;4980214;28;20766;-78
2024/04/17 14:16:40;;;;;;;1.38;0.50;;;;;;;;;;4978895;28;20005;-76
2024/04/17 14:19:10;;;;;;;0.45;0.38;;;;;;;;;;4980139;28;20014;-76
2024/04/17 14:21:41;;;;;;;1.45;0.52;;;;;;;;;;4979448;28;20028;-78
2024/04/17 14:24:13;;;;;;;2.35;0.60;;;;;;;;;;4980442;28;20044;-76
2024/04/17 14:26:43;;;;;;;0.50;0.50;;;;;;;;;;4980194;28;20056;-77
2024/04/17 14:29:14;;;;;;;1.35;0.60;;;;;;;;;;4979925;28;20422;-77
2024/04/17 14:31:44;;;;;;;0.65;0.50;;;;;;;;;;4978489;28;20032;-75
2024/04/17 14:34:15;;;;;;;1.55;0.60;;;;;;;;;;4980466;28;20032;-76
2024/04/17 14:36:45;;;;;;;1.67;0.60;;;;;;;;;;4980807;28;20582;-79
2024/04/17 14:39:15;;;;;;;0.35;0.35;;;;;;;;;;4980375;28;20014;-77
2024/04/17 14:41:45;;;;;;;2.95;0.40;;;;;;;;;;4978452;28;20005;-77
2024/04/17 14:44:16;;;;;;;2.63;0.50;;;;;;;;;;4979986;28;20642;-76
2024/04/17 14:46:47;;;;;;;0.47;0.40;;;;;;;;;;4980226;28;20030;-75
2024/04/17 14:49:18;;;;;;;4.03;0.40;;;;;;;;;;4979936;28;20004;-78
2024/04/17 14:51:48;;;;;;;0.38;0.38;;;;;;;;;;4977316;28;20032;-82
2024/04/17 14:54:19;;;;;;;1.90;0.40;;;;;;;;;;4980081;28;20033;-76
2024/04/17 14:56:51;;;;;;;0.35;0.35;;;;;;;;;;4980386;28;20599;-76
2024/04/17 14:59:22;;;;;;;1.42;0.60;;;;;;;;;;4980082;28;20549;-76
2024/04/17 15:01:53;;;;;;;0.73;0.73;;;;;;;;;;4979097;28;20021;-78
2024/04/17 15:04:24;;;;;;;2.78;0.60;;;;;;;;;;4980585;28;20828;-76
2024/04/17 15:06:57;;;;;;;1.25;0.60;;;;;;;;;;4952995;28;20028;-78
2024/04/17 15:09:28;;;;;;;0.35;0.32;;;;;;;;;;4978073;28;20594;-76
2024/04/17 15:11:58;;;;;;;6.03;0.55;;;;;;;;;;4979789;28;20029;-76